Time;durP1;ratioP1;P1;durP2;ratioP2;P2;SDS_P1;SDS_P2;PMS_P1;PMS_P2;Temp;Humidity;BMP_temperature;BMP_pressure;BME280_temperature;BME280_humidity;BME280_pressure;Samples;Min_cycle;Max_cycle;Signal;HPM_P1;HPM_P2
2022/03/17 00:00:34;;;;;;;30.15;17.35;;;10.00;99.90;;;;;;5012319;28;20045;-79
2022/03/17 00:03:00;;;;;;;30.42;17.30;;;10.00;99.90;;;;;;5012272;28;20061;-79
2022/03/17 00:05:25;;;;;;;26.98;17.35;;;10.00;99.90;;;;;;5011948;28;20038;-80
2022/03/17 00:07:51;;;;;;;29.58;18.08;;;10.00;99.90;;;;;;5021266;28;20073;-80
2022/03/17 00:10:17;;;;;;;32.85;17.48;;;9.90;99.90;;;;;;5032210;28;20129;-80
2022/03/17 00:12:44;;;;;;;32.55;19.23;;;10.00;99.90;;;;;;5034090;28;20515;-79
2022/03/17 00:15:11;;;;;;;29.73;17.42;;;9.90;99.90;;;;;;5034350;28;20666;-79
2022/03/17 00:17:37;;;;;;;27.42;17.23;;;9.90;99.90;;;;;;5025367;28;20081;-80
2022/03/17 00:20:06;;;;;;;29.63;18.48;;;9.90;99.90;;;;;;5014186;28;20497;-80
2022/03/17 00:22:31;;;;;;;33.15;19.17;;;9.90;99.90;;;;;;5014006;28;20061;-79
2022/03/17 00:24:57;;;;;;;30.92;18.55;;;9.90;99.90;;;;;;5024769;28;20041;-79
2022/03/17 00:27:23;;;;;;;25.65;16.50;;;9.90;99.90;;;;;;5015721;28;20037;-80
2022/03/17 00:29:50;;;;;;;40.03;19.25;;;9.90;99.90;;;;;;5033468;28;20232;-79
2022/03/17 00:32:17;;;;;;;29.52;17.83;;;9.90;99.90;;;;;;5018039;28;20124;-79
2022/03/17 00:37:27;;;;;;;32.88;18.77;;;9.80;99.90;;;;;;5004822;28;20125;-80
2022/03/17 00:39:53;;;;;;;36.08;18.60;;;9.90;99.90;;;;;;5034068;28;20570;-80
2022/03/17 00:42:19;;;;;;;29.80;16.88;;;9.90;99.90;;;;;;5019047;28;20038;-80
2022/03/17 00:44:46;;;;;;;39.53;20.05;;;9.90;99.90;;;;;;5014292;28;20038;-79
2022/03/17 00:47:13;;;;;;;32.95;18.23;;;9.90;99.90;;;;;;5029477;28;20060;-80
2022/03/17 00:49:38;;;;;;;31.60;17.63;;;9.90;99.90;;;;;;5032393;28;20045;-79
2022/03/17 00:52:09;;;;;;;38.10;20.98;;;9.90;99.90;;;;;;5033658;28;20067;-80
2022/03/17 00:54:39;;;;;;;30.75;17.25;;;10.00;99.90;;;;;;5032949;28;20033;-80
2022/03/17 00:57:06;;;;;;;34.95;20.83;;;9.90;99.90;;;;;;5033628;28;20477;-80
2022/03/17 00:59:32;;;;;;;29.73;18.50;;;9.90;99.90;;;;;;5032917;28;20045;-80
2022/03/17 01:01:57;;;;;;;36.00;20.40;;;10.00;99.90;;;;;;5033676;28;20048;-80
2022/03/17 01:04:23;;;;;;;28.77;17.20;;;10.00;99.90;;;;;;5033901;28;20048;-80
2022/03/17 01:06:48;;;;;;;33.80;19.95;;;10.00;99.90;;;;;;5033631;28;20105;-79
2022/03/17 01:09:14;;;;;;;31.67;18.75;;;10.00;99.90;;;;;;5015446;28;20046;-80
2022/03/17 01:11:39;;;;;;;33.38;19.33;;;10.00;99.90;;;;;;5015281;28;20041;-80
2022/03/17 01:14:05;;;;;;;34.08;20.73;;;10.00;99.90;;;;;;5016797;28;20052;-79
2022/03/17 01:16:30;;;;;;;34.85;19.42;;;9.90;99.90;;;;;;5016975;28;20046;-80
2022/03/17 01:18:56;;;;;;;33.60;19.05;;;9.90;99.90;;;;;;5035838;28;20045;-79
2022/03/17 01:21:21;;;;;;;32.83;18.48;;;9.90;99.90;;;;;;5039266;28;20088;-80
2022/03/17 01:23:47;;;;;;;33.35;18.70;;;9.90;99.90;;;;;;5039367;28;20045;-80
2022/03/17 01:26:13;;;;;;;34.42;19.20;;;10.00;99.90;;;;;;5040232;28;20107;-80
2022/03/17 01:28:40;;;;;;;36.67;19.50;;;10.00;99.90;;;;;;5038239;28;20038;-80
2022/03/17 01:31:05;;;;;;;31.70;17.38;;;10.00;99.90;;;;;;5020481;28;20049;-79
2022/03/17 01:33:31;;;;;;;37.28;19.15;;;10.00;99.90;;;;;;5036663;28;20610;-79
2022/03/17 01:35:57;;;;;;;33.35;19.48;;;10.00;99.90;;;;;;5026559;28;20548;-79
2022/03/17 01:38:23;;;;;;;31.75;18.42;;;10.00;99.90;;;;;;4999957;28;20046;-80
2022/03/17 01:40:48;;;;;;;32.42;18.63;;;10.00;99.90;;;;;;5015761;28;20077;-80
2022/03/17 01:43:14;;;;;;;30.40;18.75;;;10.00;99.90;;;;;;5014726;28;20045;-79
2022/03/17 01:45:39;;;;;;;32.47;20.90;;;9.90;99.90;;;;;;5034971;28;20045;-79
2022/03/17 01:48:05;;;;;;;33.50;20.75;;;10.00;99.90;;;;;;5035060;28;20136;-79
2022/03/17 01:50:30;;;;;;;34.47;18.27;;;9.90;99.90;;;;;;5023475;28;20050;-79
2022/03/17 01:52:56;;;;;;;30.23;17.85;;;9.90;99.90;;;;;;5018241;28;20416;-79
2022/03/17 01:55:22;;;;;;;35.17;18.17;;;10.00;99.90;;;;;;4999876;28;20098;-79
2022/03/17 01:57:48;;;;;;;32.47;19.58;;;9.90;99.90;;;;;;5015723;28;20485;-79
2022/03/17 02:00:17;;;;;;;39.15;20.35;;;9.90;99.90;;;;;;5015867;28;20469;-79
2022/03/17 02:02:44;;;;;;;36.97;19.38;;;9.90;99.90;;;;;;5028466;28;20037;-79
2022/03/17 02:05:10;;;;;;;33.55;17.40;;;9.50;99.90;;;;;;5018819;28;20095;-79
2022/03/17 02:07:36;;;;;;;29.70;18.50;;;9.90;99.90;;;;;;5018361;28;20447;-79
2022/03/17 02:10:03;;;;;;;31.70;18.23;;;9.90;99.90;;;;;;5036858;28;20048;-79
2022/03/17 02:15:13;;;;;;;34.13;19.00;;;9.90;99.90;;;;;;5018144;28;20056;-79
2022/03/17 02:17:43;;;;;;;30.77;17.20;;;9.90;99.90;;;;;;5015138;28;20042;-79
2022/03/17 02:20:12;;;;;;;36.20;20.25;;;9.80;99.90;;;;;;4999181;28;20497;-79
2022/03/17 02:22:42;;;;;;;29.40;19.45;;;9.90;99.90;;;;;;5026551;28;20099;-80
2022/03/17 02:27:52;;;;;;;31.90;18.95;;;9.80;99.90;;;;;;5034099;28;20053;-79
2022/03/17 02:30:20;;;;;;;34.03;19.33;;;9.80;99.90;;;;;;5034916;28;20413;-80
2022/03/17 02:32:47;;;;;;;36.42;21.58;;;9.70;99.90;;;;;;5035242;28;20080;-80
2022/03/17 02:35:16;;;;;;;31.98;20.48;;;9.70;99.90;;;;;;5034487;28;20053;-79
2022/03/17 02:37:41;;;;;;;33.85;19.73;;;9.70;99.90;;;;;;5015595;28;20068;-80
2022/03/17 02:40:10;;;;;;;33.55;18.88;;;9.70;99.90;;;;;;5016127;28;20037;-80
2022/03/17 02:42:38;;;;;;;29.45;18.73;;;9.80;99.90;;;;;;5065542;22;20054;-81
2022/03/17 02:45:05;;;;;;;33.50;20.13;;;9.90;99.90;;;;;;5006936;28;20054;-82
2022/03/17 02:47:31;;;;;;;31.80;19.90;;;10.00;99.90;;;;;;5023895;28;20042;-81
2022/03/17 02:49:57;;;;;;;30.98;19.75;;;10.10;99.90;;;;;;5015305;28;20046;-81
2022/03/17 02:52:26;;;;;;;35.08;20.30;;;10.10;99.90;;;;;;5006679;28;20073;-82
2022/03/17 02:54:53;;;;;;;32.80;19.45;;;10.10;99.90;;;;;;5014083;28;20127;-81
2022/03/17 02:57:19;;;;;;;31.10;18.42;;;10.10;99.90;;;;;;5015045;28;20112;-83
2022/03/17 02:59:46;;;;;;;30.45;18.23;;;10.20;99.90;;;;;;5013121;28;20041;-82
2022/03/17 03:02:14;;;;;;;32.60;19.83;;;10.30;99.90;;;;;;5015362;28;20037;-81
2022/03/17 03:04:40;;;;;;;30.17;16.90;;;10.30;99.90;;;;;;5013521;28;20038;-81
2022/03/17 03:07:06;;;;;;;30.77;19.88;;;10.40;99.90;;;;;;5015359;28;20096;-82
2022/03/17 03:09:32;;;;;;;32.72;19.13;;;10.50;99.90;;;;;;4997911;28;20044;-81
2022/03/17 03:11:58;;;;;;;29.58;18.05;;;10.60;99.90;;;;;;4998394;28;20129;-82
2022/03/17 03:14:25;;;;;;;33.53;18.92;;;10.60;99.90;;;;;;4996287;28;20069;-82
2022/03/17 03:16:50;;;;;;;30.35;19.33;;;10.60;99.90;;;;;;4995015;28;20113;-82
2022/03/17 03:19:16;;;;;;;31.38;17.85;;;10.60;99.90;;;;;;4996288;28;20097;-81
2022/03/17 03:21:44;;;;;;;30.52;19.20;;;10.60;99.90;;;;;;4996255;28;20040;-81
2022/03/17 03:24:11;;;;;;;28.70;17.27;;;10.60;99.90;;;;;;5014465;28;20041;-81
2022/03/17 03:26:37;;;;;;;29.63;19.52;;;10.60;99.90;;;;;;5015220;28;20094;-81
2022/03/17 03:29:21;;;;;;;32.20;19.65;;;10.60;99.90;;;;;;4997947;28;20496;-82
2022/03/17 03:31:46;;;;;;;30.67;19.25;;;10.60;99.90;;;;;;5014886;28;20050;-81
2022/03/17 03:34:12;;;;;;;29.33;17.55;;;10.60;99.90;;;;;;5014585;28;20386;-81
2022/03/17 03:39:22;;;;;;;32.83;18.77;;;10.70;99.90;;;;;;5014662;28;20046;-81
2022/03/17 03:41:47;;;;;;;33.88;19.48;;;10.70;99.90;;;;;;5013882;28;20045;-81
2022/03/17 03:44:14;;;;;;;26.80;17.67;;;10.60;99.90;;;;;;5014923;28;20060;-82
2022/03/17 03:46:40;;;;;;;29.63;17.63;;;10.80;99.90;;;;;;5014746;28;20049;-81
2022/03/17 03:49:06;;;;;;;31.10;19.40;;;10.80;99.90;;;;;;5018832;28;20050;-82
2022/03/17 03:51:32;;;;;;;32.15;20.17;;;10.80;99.90;;;;;;5031623;28;20077;-82
2022/03/17 03:54:13;;;;;;;32.08;20.35;;;10.90;99.90;;;;;;5037521;28;20042;-82
2022/03/17 03:56:47;;;;;;;27.05;17.27;;;10.90;99.90;;;;;;5038424;28;20101;-82
2022/03/17 03:59:17;;;;;;;31.25;20.13;;;10.90;99.90;;;;;;5038408;28;20060;-82
2022/03/17 04:01:43;;;;;;;34.95;21.17;;;10.90;99.90;;;;;;5035971;28;20053;-81
2022/03/17 04:04:08;;;;;;;31.40;19.67;;;10.90;99.90;;;;;;5016939;28;20077;-82
2022/03/17 04:06:40;;;;;;;35.20;20.42;;;10.90;99.90;;;;;;5015434;28;20382;-80
2022/03/17 04:09:06;;;;;;;33.30;20.30;;;11.00;99.90;;;;;;5015182;28;20117;-82
2022/03/17 04:11:31;;;;;;;34.85;21.17;;;10.90;99.90;;;;;;5014592;28;20070;-81
2022/03/17 04:13:57;;;;;;;29.50;19.88;;;10.90;99.90;;;;;;5014268;28;20571;-82
2022/03/17 04:16:22;;;;;;;33.17;20.88;;;10.90;99.90;;;;;;5013094;28;20046;-81
2022/03/17 04:18:48;;;;;;;30.40;20.02;;;10.80;99.90;;;;;;5013141;28;20033;-81
2022/03/17 04:21:13;;;;;;;31.58;20.23;;;10.70;99.90;;;;;;5014222;28;20041;-82
2022/03/17 04:23:39;;;;;;;31.20;19.02;;;10.60;99.90;;;;;;4996507;28;20037;-81
2022/03/17 04:26:04;;;;;;;32.95;20.58;;;10.50;99.90;;;;;;5013867;28;20045;-81
2022/03/17 04:28:32;;;;;;;29.20;18.77;;;10.40;99.90;;;;;;5012902;28;20512;-81
2022/03/17 04:30:58;;;;;;;34.67;19.30;;;10.40;99.90;;;;;;5013658;28;20038;-81
2022/03/17 04:33:23;;;;;;;36.40;23.92;;;10.30;99.90;;;;;;5014518;28;20038;-81
2022/03/17 04:35:49;;;;;;;35.25;19.70;;;10.10;99.90;;;;;;5013925;28;20437;-81
2022/03/17 04:38:16;;;;;;;35.20;21.98;;;10.00;99.90;;;;;;5013926;28;20099;-80
2022/03/17 04:40:46;;;;;;;41.80;25.67;;;10.00;99.90;;;;;;5011891;28;20046;-81
2022/03/17 04:43:12;;;;;;;40.63;23.02;;;9.80;99.90;;;;;;5013741;28;20134;-83
2022/03/17 04:45:38;;;;;;;45.17;27.05;;;9.70;99.90;;;;;;5012607;28;20120;-81
2022/03/17 04:48:04;;;;;;;51.40;30.70;;;9.60;99.90;;;;;;5014077;28;20042;-80
2022/03/17 04:50:33;;;;;;;50.88;29.85;;;9.50;99.90;;;;;;5016106;28;20038;-79
2022/03/17 04:55:43;;;;;;;54.13;30.77;;;9.20;99.90;;;;;;5019357;28;20061;-81
2022/03/17 04:58:08;;;;;;;55.35;31.40;;;9.10;99.90;;;;;;5018729;28;20046;-81
2022/03/17 05:00:34;;;;;;;58.63;33.28;;;9.10;99.90;;;;;;5018729;28;20045;-82
2022/03/17 05:02:59;;;;;;;63.90;34.25;;;9.10;99.90;;;;;;5018026;28;20052;-81
2022/03/17 05:05:25;;;;;;;61.63;34.83;;;9.00;99.90;;;;;;5017304;28;20081;-82
2022/03/17 05:07:56;;;;;;;60.78;34.15;;;9.00;99.90;;;;;;5016295;28;20050;-82
2022/03/17 05:10:21;;;;;;;64.78;33.95;;;8.90;99.90;;;;;;5017278;28;20052;-81
2022/03/17 05:12:47;;;;;;;70.47;39.35;;;8.90;99.90;;;;;;5017105;28;20042;-81
2022/03/17 05:15:12;;;;;;;75.25;39.28;;;8.90;99.90;;;;;;5017351;28;20489;-81
2022/03/17 05:17:39;;;;;;;77.95;36.30;;;8.80;99.90;;;;;;5017236;28;20088;-81
2022/03/17 05:20:07;;;;;;;71.18;36.45;;;8.90;99.90;;;;;;5015364;28;20430;-81
2022/03/17 05:22:33;;;;;;;60.90;33.80;;;8.90;99.90;;;;;;5017062;28;20038;-82
2022/03/17 05:24:58;;;;;;;65.50;33.90;;;9.00;99.90;;;;;;5016768;28;20042;-80
2022/03/17 05:27:25;;;;;;;60.47;30.52;;;9.00;99.90;;;;;;5016910;28;20050;-81
2022/03/17 05:29:50;;;;;;;42.63;22.30;;;9.00;99.90;;;;;;5016716;28;20050;-82
2022/03/17 05:32:16;;;;;;;37.17;19.88;;;9.10;99.90;;;;;;5015522;28;20133;-82
2022/03/17 05:34:41;;;;;;;36.00;18.77;;;9.00;99.90;;;;;;5016920;28;20049;-82
2022/03/17 05:37:09;;;;;;;22.20;12.80;;;8.90;99.90;;;;;;5016494;28;20085;-82
2022/03/17 05:39:35;;;;;;;17.58;10.25;;;8.80;99.90;;;;;;5016646;28;20144;-82
2022/03/17 05:42:00;;;;;;;11.25;6.80;;;8.60;99.90;;;;;;5016175;28;20085;-83
2022/03/17 05:44:26;;;;;;;11.80;7.03;;;8.50;99.90;;;;;;5016300;28;20125;-83
2022/03/17 05:46:52;;;;;;;11.15;7.13;;;8.30;99.90;;;;;;5015149;28;20497;-83
2022/03/17 05:49:19;;;;;;;9.20;5.82;;;8.10;99.90;;;;;;5014872;28;20048;-83
2022/03/17 05:51:44;;;;;;;12.18;7.45;;;8.00;99.90;;;;;;5012974;28;20054;-81
2022/03/17 05:54:10;;;;;;;10.02;6.40;;;8.30;99.90;;;;;;5014413;28;20045;-82
2022/03/17 05:56:36;;;;;;;13.15;8.32;;;7.90;99.90;;;;;;5012790;28;20049;-82
2022/03/17 05:59:01;;;;;;;15.18;8.50;;;7.80;99.90;;;;;;5014223;28;20080;-81
2022/03/17 06:01:27;;;;;;;19.10;9.70;;;8.20;99.90;;;;;;4996941;28;20128;-81
2022/03/17 06:03:52;;;;;;;15.75;8.80;;;7.70;99.90;;;;;;5014976;28;20092;-83
2022/03/17 06:06:18;;;;;;;17.58;10.25;;;7.70;99.90;;;;;;5015288;28;20046;-82
2022/03/17 06:08:43;;;;;;;28.20;11.35;;;7.70;99.90;;;;;;5017264;28;20124;-81
2022/03/17 06:11:09;;;;;;;24.73;11.48;;;7.60;99.90;;;;;;5017400;28;20385;-81
2022/03/17 06:13:35;;;;;;;29.20;12.10;;;7.60;99.90;;;;;;5016086;28;20050;-82
2022/03/17 06:16:01;;;;;;;25.92;13.00;;;7.60;99.90;;;;;;5017166;28;20042;-81
2022/03/17 06:18:26;;;;;;;23.73;12.25;;;7.60;99.90;;;;;;5023773;28;20085;-82
2022/03/17 06:20:52;;;;;;;30.52;11.75;;;7.60;99.90;;;;;;5039922;28;20030;-81
2022/03/17 06:23:19;;;;;;;24.35;11.80;;;7.60;99.90;;;;;;5040386;28;20026;-80
2022/03/17 06:25:45;;;;;;;29.70;12.23;;;7.60;99.90;;;;;;5039071;28;20042;-81
2022/03/17 06:28:15;;;;;;;21.30;12.25;;;7.50;99.90;;;;;;5038598;28;20041;-83
2022/03/17 06:30:41;;;;;;;15.35;8.00;;;7.80;99.90;;;;;;5036762;28;20084;-81
2022/03/17 06:33:07;;;;;;;29.40;12.18;;;7.60;99.90;;;;;;5015887;28;20046;-81
2022/03/17 06:35:34;;;;;;;26.45;10.25;;;7.90;99.90;;;;;;5015120;28;20061;-82
2022/03/17 06:38:01;;;;;;;26.45;9.38;;;7.50;99.90;;;;;;5014550;28;20064;-82
2022/03/17 06:40:29;;;;;;;24.80;9.65;;;7.60;99.90;;;;;;5015665;28;20042;-82
2022/03/17 06:42:55;;;;;;;23.95;8.68;;;7.50;99.90;;;;;;5015223;28;20085;-82
2022/03/17 06:45:22;;;;;;;20.63;7.32;;;7.50;99.90;;;;;;5015425;28;20077;-81
2022/03/17 06:47:47;;;;;;;21.10;8.20;;;7.50;99.90;;;;;;5015548;28;20085;-82
2022/03/17 06:50:15;;;;;;;15.43;5.78;;;7.50;99.90;;;;;;5014438;28;20077;-82
2022/03/17 06:52:44;;;;;;;16.58;7.45;;;7.50;99.90;;;;;;5014510;28;20048;-82
2022/03/17 06:55:10;;;;;;;16.20;7.18;;;7.50;99.90;;;;;;5013931;28;20050;-80
2022/03/17 06:57:36;;;;;;;16.65;6.30;;;7.40;99.90;;;;;;5015741;28;20034;-82
2022/03/17 07:00:05;;;;;;;17.13;6.55;;;7.40;99.90;;;;;;5015594;28;20104;-81
2022/03/17 07:02:31;;;;;;;11.98;5.50;;;7.40;99.90;;;;;;5014824;28;20046;-82
2022/03/17 07:04:56;;;;;;;29.33;7.55;;;7.40;99.90;;;;;;4997535;28;20045;-82
2022/03/17 07:07:23;;;;;;;15.52;6.07;;;7.40;99.90;;;;;;5014190;28;20053;-82
2022/03/17 07:09:49;;;;;;;14.30;5.85;;;7.40;99.90;;;;;;5015241;28;20058;-83
2022/03/17 07:12:14;;;;;;;13.98;4.65;;;7.30;99.90;;;;;;5015245;28;20045;-81
2022/03/17 07:14:40;;;;;;;15.00;4.50;;;7.30;99.90;;;;;;5014982;28;20428;-82
2022/03/17 07:17:06;;;;;;;15.15;5.93;;;7.40;99.90;;;;;;5015181;28;20076;-82
2022/03/17 07:19:32;;;;;;;19.52;4.68;;;7.30;99.90;;;;;;5014022;28;20096;-83
2022/03/17 07:21:58;;;;;;;13.05;4.20;;;7.30;99.90;;;;;;5015010;28;20480;-81
2022/03/17 07:24:24;;;;;;;22.45;5.90;;;7.30;99.90;;;;;;5014093;28;20041;-81
2022/03/17 07:26:49;;;;;;;9.13;3.30;;;7.30;99.90;;;;;;5014983;28;20068;-83
2022/03/17 07:29:15;;;;;;;13.35;3.63;;;8.10;99.90;;;;;;5014905;28;20485;-81
2022/03/17 07:31:44;;;;;;;15.25;3.10;;;7.30;99.90;;;;;;4996988;28;20437;-82
2022/03/17 07:34:09;;;;;;;13.27;2.83;;;7.30;99.90;;;;;;5015096;28;20053;-82
2022/03/17 07:36:35;;;;;;;14.15;3.38;;;7.30;99.90;;;;;;5013482;28;20385;-81
2022/03/17 07:39:02;;;;;;;11.43;2.45;;;7.30;99.90;;;;;;5014867;28;20038;-82
2022/03/17 07:41:28;;;;;;;13.20;2.90;;;7.00;99.90;;;;;;5014457;28;20046;-82
2022/03/17 07:43:57;;;;;;;11.52;2.53;;;7.20;99.90;;;;;;5014666;28;20054;-80
2022/03/17 07:46:23;;;;;;;15.80;3.75;;;7.20;99.90;;;;;;5013636;28;20389;-82
2022/03/17 07:48:49;;;;;;;14.48;2.30;;;7.30;99.90;;;;;;5013630;28;20650;-81
2022/03/17 07:51:15;;;;;;;16.15;3.03;;;7.30;99.90;;;;;;5013214;28;20049;-82
2022/03/17 07:53:48;;;;;;;8.23;2.20;;;7.30;99.90;;;;;;5013488;28;20049;-82
2022/03/17 07:56:14;;;;;;;10.85;2.92;;;7.30;99.90;;;;;;5013640;28;20084;-82
2022/03/17 07:58:40;;;;;;;13.27;2.00;;;7.20;99.90;;;;;;5012999;28;20176;-82
2022/03/17 08:01:06;;;;;;;11.35;2.08;;;7.30;99.90;;;;;;5014619;28;20045;-82
2022/03/17 08:03:32;;;;;;;13.75;1.98;;;7.20;99.90;;;;;;5014355;28;20048;-82
2022/03/17 08:05:58;;;;;;;12.10;2.95;;;7.20;99.90;;;;;;5012954;28;20052;-81
2022/03/17 08:08:24;;;;;;;19.13;3.53;;;7.20;99.90;;;;;;5013102;28;20038;-80
2022/03/17 08:10:49;;;;;;;17.48;2.67;;;7.00;99.90;;;;;;5013383;28;20048;-82
2022/03/17 08:13:15;;;;;;;18.63;2.92;;;7.30;99.90;;;;;;5014363;28;20044;-81
2022/03/17 08:15:42;;;;;;;18.67;3.30;;;7.10;99.90;;;;;;5014935;28;20042;-82
2022/03/17 08:18:08;;;;;;;11.77;2.28;;;6.90;99.90;;;;;;5014685;28;20454;-81
2022/03/17 08:20:43;;;;;;;16.13;1.67;;;7.20;99.90;;;;;;5012786;28;20041;-82
2022/03/17 08:23:09;;;;;;;6.57;1.37;;;7.20;99.90;;;;;;5012213;28;20042;-81
2022/03/17 08:25:35;;;;;;;14.85;2.30;;;7.30;99.90;;;;;;4994633;28;20347;-83
2022/03/17 08:28:02;;;;;;;16.52;2.65;;;7.20;99.90;;;;;;5010589;28;20065;-82
2022/03/17 08:30:38;;;;;;;6.38;1.80;;;7.20;99.90;;;;;;5013129;28;20060;-82
2022/03/17 08:33:04;;;;;;;16.88;2.30;;;7.20;99.90;;;;;;5013190;28;20412;-82
2022/03/17 08:35:32;;;;;;;17.63;3.53;;;7.20;99.90;;;;;;5035200;28;20037;-83
2022/03/17 08:37:57;;;;;;;19.15;3.25;;;7.30;99.90;;;;;;5035626;28;20081;-83
2022/03/17 08:40:23;;;;;;;12.43;1.75;;;7.40;99.90;;;;;;5035257;28;20046;-84
2022/03/17 08:42:49;;;;;;;14.00;2.47;;;7.40;99.90;;;;;;5007162;28;20429;-83
2022/03/17 08:50:45;;;;;;;14.00;2.72;;;7.50;99.90;;;;;;5011692;28;20050;-82
2022/03/17 08:53:11;;;;;;;17.48;2.78;;;7.60;99.90;;;;;;5011567;28;20074;-81
2022/03/17 08:55:42;;;;;;;10.02;2.17;;;7.70;99.90;;;;;;5011522;28;20061;-83
2022/03/17 08:58:08;;;;;;;14.40;2.20;;;7.60;99.90;;;;;;5011494;28;20112;-81
2022/03/17 09:00:34;;;;;;;14.63;2.30;;;7.50;99.90;;;;;;5009938;28;20054;-82
2022/03/17 09:03:03;;;;;;;7.40;1.88;;;8.40;99.90;;;;;;5011634;28;20050;-81
2022/03/17 09:05:30;;;;;;;19.95;2.47;;;7.40;99.90;;;;;;5009706;28;20456;-83
2022/03/17 09:08:06;;;;;;;11.25;2.20;;;7.40;99.90;;;;;;5011622;28;20050;-82
2022/03/17 09:10:35;;;;;;;17.13;1.60;;;7.40;99.90;;;;;;5010688;28;20053;-82
2022/03/17 09:13:07;;;;;;;16.33;2.63;;;7.40;99.90;;;;;;5010404;28;20049;-82
2022/03/17 09:15:38;;;;;;;12.00;2.10;;;7.30;99.90;;;;;;5010288;28;20120;-82
2022/03/17 09:18:06;;;;;;;18.83;3.75;;;7.40;99.90;;;;;;5010191;28;20050;-82
2022/03/17 09:20:31;;;;;;;9.80;1.63;;;7.50;99.90;;;;;;5011482;28;20046;-83
2022/03/17 09:22:57;;;;;;;16.88;2.47;;;7.60;99.90;;;;;;5011164;28;20088;-82
2022/03/17 09:25:28;;;;;;;11.98;1.85;;;7.90;99.90;;;;;;5010249;28;20050;-80
2022/03/17 09:27:54;;;;;;;8.57;2.40;;;8.80;99.90;;;;;;5010392;28;20041;-83
2022/03/17 09:30:20;;;;;;;18.13;4.55;;;8.20;99.90;;;;;;5010127;28;20054;-83
2022/03/17 09:32:46;;;;;;;11.02;2.55;;;8.20;99.90;;;;;;5011012;28;20050;-82
2022/03/17 09:35:12;;;;;;;12.23;1.70;;;8.10;99.90;;;;;;5011615;28;20496;-82
2022/03/17 09:37:39;;;;;;;10.73;2.55;;;8.10;99.90;;;;;;5011203;28;20108;-81
2022/03/17 09:40:06;;;;;;;14.70;2.28;;;8.10;99.90;;;;;;5011277;28;20057;-83
2022/03/17 09:42:31;;;;;;;13.73;4.10;;;8.00;99.90;;;;;;5002502;28;20054;-82
2022/03/17 09:44:57;;;;;;;12.95;1.95;;;7.90;99.90;;;;;;5015618;28;20041;-82
2022/03/17 09:47:27;;;;;;;18.73;2.25;;;7.80;99.90;;;;;;5016405;28;20049;-81
2022/03/17 09:49:54;;;;;;;17.15;2.65;;;7.80;99.90;;;;;;5016182;28;20527;-82
2022/03/17 09:52:21;;;;;;;10.30;2.05;;;7.70;99.90;;;;;;5016742;28;20109;-81
2022/03/17 09:54:48;;;;;;;16.60;2.30;;;7.80;99.90;;;;;;5016830;28;20120;-82
2022/03/17 09:57:20;;;;;;;18.25;2.38;;;7.90;99.90;;;;;;5015662;28;20034;-82
2022/03/17 09:59:56;;;;;;;23.30;4.18;;;8.20;99.90;;;;;;4999599;28;20133;-82
2022/03/17 10:02:23;;;;;;;15.50;2.25;;;8.50;99.90;;;;;;5015129;28;20045;-83
2022/03/17 10:04:49;;;;;;;9.52;1.90;;;8.80;99.90;;;;;;5016017;28;20046;-82
2022/03/17 10:07:23;;;;;;;21.00;3.85;;;9.00;99.90;;;;;;5016240;28;20049;-81
2022/03/17 10:09:51;;;;;;;20.73;3.13;;;9.10;99.90;;;;;;5016059;28;20046;-82
2022/03/17 10:12:22;;;;;;;11.77;1.77;;;9.40;99.90;;;;;;5016508;28;20058;-82
2022/03/17 10:14:50;;;;;;;11.73;3.33;;;9.60;99.90;;;;;;5016426;28;20056;-82
2022/03/17 10:17:36;;;;;;;15.85;2.88;;;9.60;99.90;;;;;;5016011;28;20046;-82
2022/03/17 10:20:22;;;;;;;15.27;3.05;;;9.50;99.90;;;;;;5015828;28;20095;-81
2022/03/17 10:22:52;;;;;;;8.38;1.80;;;9.70;99.90;;;;;;5015628;28;20045;-82
2022/03/17 10:25:32;;;;;;;16.13;3.67;;;9.80;99.90;;;;;;5015901;28;20037;-81
2022/03/17 10:27:59;;;;;;;11.15;2.03;;;9.90;99.90;;;;;;5015617;28;20046;-82
2022/03/17 10:30:36;;;;;;;11.55;2.00;;;9.80;99.90;;;;;;5015971;28;20034;-81
2022/03/17 10:33:13;;;;;;;13.15;1.98;;;9.70;99.90;;;;;;5015588;28;20049;-82
2022/03/17 10:35:45;;;;;;;8.85;1.58;;;9.90;99.90;;;;;;5016270;28;20046;-82
2022/03/17 10:38:15;;;;;;;11.90;1.77;;;10.00;99.90;;;;;;5015962;28;20096;-81
2022/03/17 10:40:42;;;;;;;11.98;2.70;;;10.00;99.90;;;;;;5015000;28;20413;-82
2022/03/17 10:43:24;;;;;;;7.80;1.25;;;10.20;99.90;;;;;;5016119;28;20090;-81
2022/03/17 10:46:07;;;;;;;14.32;2.08;;;10.60;99.90;;;;;;5016030;28;20046;-82
2022/03/17 10:48:33;;;;;;;9.85;2.10;;;11.00;99.90;;;;;;5015044;28;20132;-82
2022/03/17 10:50:59;;;;;;;9.45;1.80;;;11.40;99.90;;;;;;5015051;28;20045;-81
2022/03/17 10:53:33;;;;;;;9.23;1.58;;;11.30;99.90;;;;;;5016037;28;20533;-81
2022/03/17 10:56:15;;;;;;;8.65;1.75;;;11.00;99.90;;;;;;5015753;28;20048;-82
2022/03/17 10:58:43;;;;;;;9.68;2.63;;;10.70;99.90;;;;;;5017129;28;20394;-81
2022/03/17 11:01:10;;;;;;;10.80;1.63;;;10.40;99.90;;;;;;5037048;28;20053;-80
2022/03/17 11:03:35;;;;;;;9.63;2.10;;;10.40;99.90;;;;;;5037943;28;20018;-78
2022/03/17 11:06:03;;;;;;;14.98;1.90;;;10.40;99.90;;;;;;5037746;28;20110;-81
2022/03/17 11:08:31;;;;;;;13.77;2.58;;;10.60;99.90;;;;;;5037171;28;20028;-82
2022/03/17 11:10:57;;;;;;;11.40;2.58;;;10.60;99.90;;;;;;5036903;28;20057;-84
2022/03/17 11:13:23;;;;;;;8.43;2.05;;;10.80;99.90;;;;;;5015611;28;20084;-81
2022/03/17 11:16:07;;;;;;;11.52;2.33;;;10.90;99.90;;;;;;5015941;28;20096;-82
2022/03/17 11:18:36;;;;;;;12.63;2.88;;;10.90;99.90;;;;;;5014204;28;20042;-82
2022/03/17 11:21:11;;;;;;;10.20;1.65;;;11.20;99.90;;;;;;5012282;28;20386;-82
2022/03/17 11:23:56;;;;;;;11.20;2.67;;;11.40;99.90;;;;;;5012375;28;20057;-82
2022/03/17 11:26:27;;;;;;;13.73;2.53;;;11.60;99.90;;;;;;5013654;28;20549;-83
2022/03/17 11:29:03;;;;;;;11.10;1.55;;;11.70;99.90;;;;;;5013099;28;20045;-81
2022/03/17 11:31:30;;;;;;;13.10;2.45;;;11.70;99.90;;;;;;5011668;28;20129;-81
2022/03/17 11:34:03;;;;;;;11.77;2.30;;;11.50;99.90;;;;;;5012983;28;20049;-83
2022/03/17 11:36:31;;;;;;;10.65;2.17;;;11.50;99.90;;;;;;5012504;28;20116;-82
2022/03/17 11:39:16;;;;;;;15.73;2.92;;;11.40;99.90;;;;;;5012621;28;20120;-83
2022/03/17 11:41:42;;;;;;;16.17;2.63;;;11.30;99.90;;;;;;5012575;28;20585;-83
2022/03/17 11:44:08;;;;;;;14.20;2.40;;;11.70;99.90;;;;;;5012763;28;20082;-82
2022/03/17 11:46:40;;;;;;;13.13;3.25;;;12.30;99.90;;;;;;5013832;28;20452;-82
2022/03/17 11:49:21;;;;;;;7.43;1.60;;;12.70;99.90;;;;;;5012565;28;20048;-81
2022/03/17 11:52:02;;;;;;;14.45;3.00;;;12.90;99.90;;;;;;5012744;28;20093;-82
2022/03/17 11:54:29;;;;;;;14.38;2.85;;;12.60;99.90;;;;;;5012756;28;20072;-81
2022/03/17 11:57:01;;;;;;;12.55;2.85;;;12.60;99.30;;;;;;5012878;28;20104;-81
2022/03/17 11:59:46;;;;;;;10.25;1.90;;;12.40;99.00;;;;;;5012869;28;20088;-79
2022/03/17 12:02:13;;;;;;;15.93;2.22;;;12.50;99.90;;;;;;5014169;28;20107;-82
2022/03/17 12:04:51;;;;;;;10.93;2.17;;;12.50;97.70;;;;;;5012730;28;20054;-82
2022/03/17 12:07:18;;;;;;;10.68;2.33;;;12.20;92.80;;;;;;5014048;28;20378;-82
2022/03/17 12:09:44;;;;;;;11.90;2.40;;;11.90;97.70;;;;;;5012624;28;20046;-80
2022/03/17 12:12:22;;;;;;;13.77;2.55;;;11.40;99.90;;;;;;5014182;28;20097;-82
2022/03/17 12:15:00;;;;;;;12.27;2.72;;;11.50;99.90;;;;;;5014115;28;20080;-82
2022/03/17 12:17:27;;;;;;;12.68;3.05;;;11.90;99.90;;;;;;5014224;28;20392;-81
2022/03/17 12:20:09;;;;;;;11.10;2.30;;;12.90;99.90;;;;;;5013874;28;20045;-81
2022/03/17 12:22:41;;;;;;;11.98;2.80;;;12.50;99.00;;;;;;5013141;28;20042;-81
2022/03/17 12:25:21;;;;;;;10.27;2.17;;;13.00;94.20;;;;;;5012407;28;20615;-82
2022/03/17 12:27:51;;;;;;;8.20;1.80;;;13.30;92.20;;;;;;5013719;28;20458;-82
2022/03/17 12:30:20;;;;;;;8.35;2.13;;;13.20;93.00;;;;;;4996569;28;20416;-80
2022/03/17 12:32:54;;;;;;;8.45;1.88;;;13.00;93.50;;;;;;5013946;28;20084;-81
2022/03/17 12:35:25;;;;;;;10.65;2.15;;;13.10;82.30;;;;;;5013594;28;20042;-81
2022/03/17 12:38:05;;;;;;;14.68;2.03;;;12.60;86.00;;;;;;5013768;28;20133;-82
2022/03/17 12:40:33;;;;;;;7.00;2.00;;;12.60;94.40;;;;;;5013961;28;20048;-81
2022/03/17 12:42:59;;;;;;;10.80;2.10;;;12.50;97.00;;;;;;5011884;28;20081;-81
2022/03/17 12:45:25;;;;;;;13.18;2.80;;;12.80;91.00;;;;;;5013867;28;20088;-80
2022/03/17 12:47:58;;;;;;;8.38;2.13;;;13.10;86.90;;;;;;5013553;28;20089;-81
2022/03/17 12:50:28;;;;;;;10.02;1.65;;;13.50;86.30;;;;;;5013855;28;20073;-80
2022/03/17 12:52:53;;;;;;;9.95;1.70;;;13.20;71.20;;;;;;5013827;28;20042;-81
2022/03/17 12:55:21;;;;;;;12.63;2.28;;;13.30;72.60;;;;;;5013611;28;20056;-82
2022/03/17 12:57:47;;;;;;;10.30;2.92;;;13.10;77.90;;;;;;5013589;28;20045;-81
2022/03/17 13:00:17;;;;;;;11.85;2.45;;;13.10;87.10;;;;;;5013287;28;20113;-81